Anglian Lady — VOLP — position and weather

sailwx.info

Track history (hours):
 
Tides and Currents Weather Stations Pressure Air Temp Water Temp Dewpoint Dewpoint Depression Visibility Wind Speed Wind Dir Waves Ship Positions

Anglian Lady

Last reported at 2014-Aug-17 17:33 UTC. Time now 2014-Aug-21 00:29 UTC.
Position N 45°06' W 085°53'.

Length 32 m.

Type: Tug. MMSI: 316002238.

Date/timePositionNaut miles runAvg speedWind from/ knotsBaromVisibWave heightAir tempDewpointWater temp
2014-Aug-17 17:33N 45°06' W 085°53'7 7.5
2014-Aug-17 16:34N 45°12' W 085°47'7 7.4
2014-Aug-17 15:34N 45°18' W 085°41'7 7.2
2014-Aug-17 14:34N 45°24' W 085°35'7 7.2
2014-Aug-17 13:34N 45°30' W 085°29'7 7.2
2014-Aug-17 12:34N 45°36' W 085°22'7 7.2
2014-Aug-17 11:34N 45°41' W 085°16'7 7.0
2014-Aug-17 10:34N 45°46' W 085°09'6 5.9
2014-Aug-17 09:34N 45°50' W 085°03'7 7.5
2014-Aug-17 08:34N 45°49' W 084°52'8 7.7
2014-Aug-17 07:34N 45°49' W 084°41'7 7.4
2014-Aug-17 06:34N 45°52' W 084°31'7 7.3
2014-Aug-17 05:34N 45°53' W 084°20'8 7.3
2014-Aug-17 04:26N 45°54' W 084°09'  
2014-Aug-14 10:28N 45°58' W 083°53'  
2014-Aug-11 15:13N 43°08' W 079°12'  
Track history (hours):
 
Tides and Currents Weather Stations Pressure Air Temp Water Temp Dewpoint Dewpoint Depression Visibility Wind Speed Wind Dir Waves Ship Positions

Anglian Lady

Last reported at 2014-Aug-17 17:33 UTC. Time now 2014-Aug-21 00:29 UTC.
Position N 45°06' W 085°53'.

Length 32 m.

Type: Tug. MMSI: 316002238.

Date/timePositionNaut miles runAvg speedWind from/ knotsBaromVisibWave heightAir tempDewpointWater temp
2014-Aug-17 17:33N 45°06' W 085°53'7 7.5
2014-Aug-17 16:34N 45°12' W 085°47'7 7.4
2014-Aug-17 15:34N 45°18' W 085°41'7 7.2
2014-Aug-17 14:34N 45°24' W 085°35'7 7.2
2014-Aug-17 13:34N 45°30' W 085°29'7 7.2
2014-Aug-17 12:34N 45°36' W 085°22'7 7.2
2014-Aug-17 11:34N 45°41' W 085°16'7 7.0
2014-Aug-17 10:34N 45°46' W 085°09'6 5.9
2014-Aug-17 09:34N 45°50' W 085°03'7 7.5
2014-Aug-17 08:34N 45°49' W 084°52'8 7.7
2014-Aug-17 07:34N 45°49' W 084°41'7 7.4
2014-Aug-17 06:34N 45°52' W 084°31'7 7.3
2014-Aug-17 05:34N 45°53' W 084°20'8 7.3
2014-Aug-17 04:26N 45°54' W 084°09'  
2014-Aug-14 10:28N 45°58' W 083°53'  
2014-Aug-11 15:13N 43°08' W 079°12'  

Dump ship's entire track history